Aviation Digital Data Service (ADDS)

Output produced by METARs form (1333 UTC 21 October 2014)
found at http://aviationweather.gov/adds/metars/
 
KART 211138Z 2112/2212 VRB03KT 6SM -SHRA BR OVC040 
     FM211300 06004KT 4SM -SHRA OVC030 
     FM211500 06007KT 6SM -SHRA OVC020 
     FM212200 03014KT 6SM -SHRA OVC025 
     FM220400 03013KT 6SM -SHRA OVC035 
     FM220900 03012KT P6SM VCSH OVC007